KDAB

Daytona Beach International Airport

Daytona Beach, Florida, USA
METAR KDAB 150253Z 00000KT 10SM BKN130 24/24 A3009 RMK AO2 SLP189 60000 T02440239 53014
Observed Flight Rules
Aug-15 @ 02:53 UTC (44 minutes ago) Visual Flight Rules
Visibility Clouds
10 miles
  • Broken at 13,000' AGL
Temperatures Readings
Current 24°C / 75°F
Dewpoint 24°C / 75°F
Humidity 100%
Altimeter 30.09" Hg
Pressure 1018.9 hPa
Elevation 9
METAR KDAB 150253Z 00000KT 10SM BKN130 24/24 A3009 RMK AO2 SLP189 60000 T02440239 53014
Observed Flight Rules
Aug-15 @ 02:53 UTC
(44 minutes ago)
VFR
Clouds
  • Broken at 13,000' AGL
Temperature Dewpoint
24°C / 75°F 24°C / 75°F
Humidity Altimeter Pressure
100% 30.09" Hg 1018.9 hPa